OISL

Lar Airport

Lar, Iran
TAF OISL 252300Z 2600/2706 27004MPS 7000 NSC BECMG 2601/2603 27006MPS FEW030 BKN100 TEMPO 2604/2608 22009MPS 6000 FEW035CB SCT040 BKN090 TEMPO 2510/2518 28008MPS BECMG 2619/2621 FEW035 SCT100
Issued Valid From Valid To
Apr-25 @ 23:00 UTC
(7 hours ago)
Apr-26 @ 00:00 UTC
(6 hours ago)
Apr-27 @ 06:00 UTC
(in 24 hours)
Expired Click to View Apr-26 @ 00:00 to Apr-26 @ 01:00
TAF OISL 252300Z 2600/2706 27004MPS 7000 NSC
Wind Visibility Clouds
270° at 8 knots 7,001 meters
  • No significant clouds
Expired Click to View Apr-25 @ 10:00 to Apr-25 @ 18:00
TEMPO 2510/2518 28008MPS
Wind
280° at 16 knots
Becoming Apr-26 @ 01:00 to Apr-26 @ 19:00
BECMG 2601/2603 27006MPS FEW030 BKN100
Wind Visibility Clouds
270° at 12 knots 7,001 meters
  • Few at 3,000' AGL
  • Broken at 10,000' AGL
Temporary Apr-26 @ 04:00 to Apr-26 @ 08:00
TEMPO 2604/2608 22009MPS 6000 FEW035CB SCT040 BKN090
Wind Visibility Clouds
220° at 17 knots 6,003 meters
  • Few at 3,500' AGL
  • Scattered at 4,000' AGL
  • Broken at 9,000' AGL
Becoming Apr-26 @ 19:00 to Apr-27 @ 06:00
BECMG 2619/2621 FEW035 SCT100
Wind Visibility Clouds
270° at 12 knots 7,001 meters
  • Few at 3,500' AGL
  • Scattered at 10,000' AGL
TAF OISL 252300Z 2600/2706 27004MPS 7000 NSC BECMG 2601/2603 27006MPS FEW030 BKN100 TEMPO 2604/2608 22009MPS 6000 FEW035CB SCT040 BKN090 TEMPO 2510/2518 28008MPS BECMG 2619/2621 FEW035 SCT100
Issued Apr-25 @ 23:00 UTC
(7 hours ago)
Valid From Apr-26 @ 00:00 UTC
(6 hours ago)
Valid To Apr-27 @ 06:00 UTC
(in 24 hours)
Apr-26 @ 00:00 - Apr-26 @ 01:00
Wind Visibility
270° at 8 knots 7,001 meters
Clouds
  • No significant clouds
Apr-25 @ 10:00 - Apr-25 @ 18:00
Wind
280° at 16 knots
Becoming Apr-26 @ 01:00 - Apr-26 @ 19:00
Wind Visibility
270° at 12 knots 7,001 meters
Clouds
  • Few at 3,000' AGL
  • Broken at 10,000' AGL
Temporary Apr-26 @ 04:00 - Apr-26 @ 08:00
Wind Visibility
220° at 17 knots 6,003 meters
Clouds
  • Few at 3,500' AGL
  • Scattered at 4,000' AGL
  • Broken at 9,000' AGL
Becoming Apr-26 @ 19:00 - Apr-27 @ 06:00
Wind Visibility
270° at 12 knots 7,001 meters
Clouds
  • Few at 3,500' AGL
  • Scattered at 10,000' AGL